sensor_id;sensor_type;location;lat;lon;timestamp;temperature;humidity
46159;DHT22;31888;44.512;26.104;2022-09-27T00:01:13;19.00;97.30
46159;DHT22;31888;44.512;26.104;2022-09-27T00:03:17;19.00;97.20
46159;DHT22;31888;44.512;26.104;2022-09-27T00:05:23;19.00;97.20
46159;DHT22;31888;44.512;26.104;2022-09-27T00:07:28;19.00;97.50
46159;DHT22;31888;44.512;26.104;2022-09-27T00:09:32;19.00;97.50
46159;DHT22;31888;44.512;26.104;2022-09-27T00:11:39;19.00;97.50
46159;DHT22;31888;44.512;26.104;2022-09-27T00:13:44;19.00;97.40
46159;DHT22;31888;44.512;26.104;2022-09-27T00:15:56;18.90;97.90
46159;DHT22;31888;44.512;26.104;2022-09-27T00:18:01;18.90;97.60
46159;DHT22;31888;44.512;26.104;2022-09-27T00:20:08;18.90;98.10
46159;DHT22;31888;44.512;26.104;2022-09-27T00:22:13;18.90;98.10
46159;DHT22;31888;44.512;26.104;2022-09-27T00:24:19;18.80;98.20
46159;DHT22;31888;44.512;26.104;2022-09-27T00:26:24;18.80;98.70
46159;DHT22;31888;44.512;26.104;2022-09-27T00:28:30;18.70;99.60
46159;DHT22;31888;44.512;26.104;2022-09-27T00:30:34;18.60;99.80
46159;DHT22;31888;44.512;26.104;2022-09-27T00:32:40;18.70;99.60
46159;DHT22;31888;44.512;26.104;2022-09-27T00:34:45;18.70;99.90
46159;DHT22;31888;44.512;26.104;2022-09-27T00:36:49;18.60;99.90
46159;DHT22;31888;44.512;26.104;2022-09-27T00:38:55;18.60;99.90
46159;DHT22;31888;44.512;26.104;2022-09-27T00:41:01;18.60;99.90
46159;DHT22;31888;44.512;26.104;2022-09-27T00:43:14;18.60;99.90
46159;DHT22;31888;44.512;26.104;2022-09-27T00:45:19;18.70;99.90
46159;DHT22;31888;44.512;26.104;2022-09-27T00:47:28;18.70;99.90
46159;DHT22;31888;44.512;26.104;2022-09-27T00:49:37;18.70;99.90
46159;DHT22;31888;44.512;26.104;2022-09-27T00:51:44;18.60;99.90
46159;DHT22;31888;44.512;26.104;2022-09-27T00:53:50;18.60;99.90
46159;DHT22;31888;44.512;26.104;2022-09-27T00:56:00;18.60;99.90
46159;DHT22;31888;44.512;26.104;2022-09-27T00:58:06;18.60;99.90
46159;DHT22;31888;44.512;26.104;2022-09-27T01:00:12;18.50;99.90
46159;DHT22;31888;44.512;26.104;2022-09-27T01:02:17;18.40;99.90
46159;DHT22;31888;44.512;26.104;2022-09-27T01:04:25;18.40;99.90
46159;DHT22;31888;44.512;26.104;2022-09-27T01:06:31;18.40;99.90
46159;DHT22;31888;44.512;26.104;2022-09-27T01:08:38;18.40;99.90
46159;DHT22;31888;44.512;26.104;2022-09-27T01:10:51;18.40;99.90
46159;DHT22;31888;44.512;26.104;2022-09-27T01:13:08;18.40;99.90
46159;DHT22;31888;44.512;26.104;2022-09-27T01:15:24;18.40;99.90
46159;DHT22;31888;44.512;26.104;2022-09-27T01:17:37;18.40;99.90
46159;DHT22;31888;44.512;26.104;2022-09-27T01:22:24;18.40;99.90
46159;DHT22;31888;44.512;26.104;2022-09-27T01:25:06;18.40;99.90
46159;DHT22;31888;44.512;26.104;2022-09-27T01:27:35;18.30;99.90
46159;DHT22;31888;44.512;26.104;2022-09-27T01:29:53;18.30;99.90
46159;DHT22;31888;44.512;26.104;2022-09-27T01:32:06;18.30;99.90
46159;DHT22;31888;44.512;26.104;2022-09-27T01:34:20;18.20;99.90
46159;DHT22;31888;44.512;26.104;2022-09-27T01:36:31;18.30;99.90
46159;DHT22;31888;44.512;26.104;2022-09-27T01:38:47;18.20;99.90
46159;DHT22;31888;44.512;26.104;2022-09-27T01:41:00;18.20;99.90
46159;DHT22;31888;44.512;26.104;2022-09-27T01:43:16;18.10;99.90
46159;DHT22;31888;44.512;26.104;2022-09-27T01:45:25;18.10;99.90
46159;DHT22;31888;44.512;26.104;2022-09-27T01:47:51;18.10;99.90
46159;DHT22;31888;44.512;26.104;2022-09-27T01:50:18;18.10;99.90
46159;DHT22;31888;44.512;26.104;2022-09-27T01:52:28;18.20;99.90
46159;DHT22;31888;44.512;26.104;2022-09-27T01:54:40;18.20;99.90
46159;DHT22;31888;44.512;26.104;2022-09-27T01:56:58;18.30;99.90
46159;DHT22;31888;44.512;26.104;2022-09-27T01:59:10;18.30;99.90
46159;DHT22;31888;44.512;26.104;2022-09-27T02:01:25;18.30;99.90
46159;DHT22;31888;44.512;26.104;2022-09-27T02:03:37;18.20;99.90
46159;DHT22;31888;44.512;26.104;2022-09-27T02:06:08;18.10;99.90
46159;DHT22;31888;44.512;26.104;2022-09-27T02:08:37;18.10;99.90
46159;DHT22;31888;44.512;26.104;2022-09-27T02:10:53;18.10;99.90
46159;DHT22;31888;44.512;26.104;2022-09-27T02:13:02;18.00;99.90
46159;DHT22;31888;44.512;26.104;2022-09-27T02:15:12;18.00;99.90
46159;DHT22;31888;44.512;26.104;2022-09-27T02:17:29;18.00;99.90
46159;DHT22;31888;44.512;26.104;2022-09-27T02:19:47;18.00;99.90
46159;DHT22;31888;44.512;26.104;2022-09-27T02:22:09;18.00;99.90
46159;DHT22;31888;44.512;26.104;2022-09-27T02:24:21;18.00;99.90
46159;DHT22;31888;44.512;26.104;2022-09-27T02:26:32;18.00;99.90
46159;DHT22;31888;44.512;26.104;2022-09-27T02:28:39;18.00;99.90
46159;DHT22;31888;44.512;26.104;2022-09-27T02:30:57;18.00;99.90
46159;DHT22;31888;44.512;26.104;2022-09-27T02:33:07;18.00;99.90
46159;DHT22;31888;44.512;26.104;2022-09-27T02:35:17;18.10;99.90
46159;DHT22;31888;44.512;26.104;2022-09-27T02:37:23;18.10;99.90
46159;DHT22;31888;44.512;26.104;2022-09-27T02:39:27;18.10;99.90
46159;DHT22;31888;44.512;26.104;2022-09-27T02:41:37;18.10;99.90
46159;DHT22;31888;44.512;26.104;2022-09-27T02:43:44;18.10;99.90
46159;DHT22;31888;44.512;26.104;2022-09-27T02:45:58;18.10;99.90
46159;DHT22;31888;44.512;26.104;2022-09-27T02:48:13;18.10;99.90
46159;DHT22;31888;44.512;26.104;2022-09-27T02:50:36;18.10;99.90
46159;DHT22;31888;44.512;26.104;2022-09-27T02:53:04;18.00;99.90
46159;DHT22;31888;44.512;26.104;2022-09-27T02:55:23;18.00;99.90
46159;DHT22;31888;44.512;26.104;2022-09-27T02:57:44;18.00;99.90
46159;DHT22;31888;44.512;26.104;2022-09-27T03:00:16;18.00;99.90
46159;DHT22;31888;44.512;26.104;2022-09-27T03:02:34;18.00;99.90
46159;DHT22;31888;44.512;26.104;2022-09-27T03:05:09;18.00;99.90
46159;DHT22;31888;44.512;26.104;2022-09-27T03:07:21;18.10;99.90
46159;DHT22;31888;44.512;26.104;2022-09-27T03:09:28;18.10;99.90
46159;DHT22;31888;44.512;26.104;2022-09-27T03:11:33;18.10;99.90
46159;DHT22;31888;44.512;26.104;2022-09-27T03:13:38;18.10;99.90
46159;DHT22;31888;44.512;26.104;2022-09-27T03:16:04;18.10;99.90
46159;DHT22;31888;44.512;26.104;2022-09-27T03:18:29;18.10;99.90
46159;DHT22;31888;44.512;26.104;2022-09-27T03:20:52;18.00;99.90
46159;DHT22;31888;44.512;26.104;2022-09-27T03:23:01;18.00;99.90
46159;DHT22;31888;44.512;26.104;2022-09-27T03:25:06;17.90;99.90
46159;DHT22;31888;44.512;26.104;2022-09-27T03:27:13;17.80;99.90
46159;DHT22;31888;44.512;26.104;2022-09-27T03:29:18;17.70;99.90
46159;DHT22;31888;44.512;26.104;2022-09-27T03:31:29;17.70;99.90
46159;DHT22;31888;44.512;26.104;2022-09-27T03:33:52;17.70;99.90
46159;DHT22;31888;44.512;26.104;2022-09-27T03:35:57;17.70;99.90
46159;DHT22;31888;44.512;26.104;2022-09-27T03:38:04;17.70;99.90
46159;DHT22;31888;44.512;26.104;2022-09-27T03:40:10;17.80;99.90
46159;DHT22;31888;44.512;26.104;2022-09-27T03:42:14;17.70;99.90
46159;DHT22;31888;44.512;26.104;2022-09-27T03:44:23;17.70;99.90
46159;DHT22;31888;44.512;26.104;2022-09-27T03:46:28;17.80;99.90
46159;DHT22;31888;44.512;26.104;2022-09-27T03:48:34;17.80;99.90
46159;DHT22;31888;44.512;26.104;2022-09-27T03:50:38;17.80;99.90
46159;DHT22;31888;44.512;26.104;2022-09-27T03:52:43;17.80;99.90
46159;DHT22;31888;44.512;26.104;2022-09-27T03:54:49;17.80;99.90
46159;DHT22;31888;44.512;26.104;2022-09-27T03:56:54;17.80;99.90
46159;DHT22;31888;44.512;26.104;2022-09-27T03:58:59;17.90;99.90
46159;DHT22;31888;44.512;26.104;2022-09-27T04:01:14;17.80;99.90
46159;DHT22;31888;44.512;26.104;2022-09-27T04:03:21;17.80;99.90
46159;DHT22;31888;44.512;26.104;2022-09-27T04:05:43;17.90;99.90
46159;DHT22;31888;44.512;26.104;2022-09-27T04:07:53;17.80;99.90
46159;DHT22;31888;44.512;26.104;2022-09-27T04:10:00;17.80;99.90
46159;DHT22;31888;44.512;26.104;2022-09-27T04:12:06;17.80;99.90
46159;DHT22;31888;44.512;26.104;2022-09-27T04:14:10;17.90;99.90
46159;DHT22;31888;44.512;26.104;2022-09-27T04:16:35;17.90;99.90
46159;DHT22;31888;44.512;26.104;2022-09-27T04:19:06;17.90;99.90
46159;DHT22;31888;44.512;26.104;2022-09-27T04:21:21;17.80;99.90
46159;DHT22;31888;44.512;26.104;2022-09-27T04:23:27;17.90;99.90
46159;DHT22;31888;44.512;26.104;2022-09-27T04:25:35;17.90;99.90
46159;DHT22;31888;44.512;26.104;2022-09-27T04:27:46;17.80;99.90
46159;DHT22;31888;44.512;26.104;2022-09-27T04:29:54;17.80;99.90
46159;DHT22;31888;44.512;26.104;2022-09-27T04:32:19;17.90;99.90
46159;DHT22;31888;44.512;26.104;2022-09-27T04:34:46;17.80;99.90
46159;DHT22;31888;44.512;26.104;2022-09-27T04:37:08;17.80;99.90
46159;DHT22;31888;44.512;26.104;2022-09-27T04:39:16;17.80;99.90
46159;DHT22;31888;44.512;26.104;2022-09-27T04:41:24;17.80;99.90
46159;DHT22;31888;44.512;26.104;2022-09-27T04:43:29;17.80;99.90
46159;DHT22;31888;44.512;26.104;2022-09-27T04:45:34;17.80;99.90
46159;DHT22;31888;44.512;26.104;2022-09-27T04:47:41;17.80;99.90
46159;DHT22;31888;44.512;26.104;2022-09-27T04:49:46;17.80;99.90
46159;DHT22;31888;44.512;26.104;2022-09-27T04:51:51;17.80;99.90
46159;DHT22;31888;44.512;26.104;2022-09-27T04:53:57;17.80;99.90
46159;DHT22;31888;44.512;26.104;2022-09-27T04:56:05;17.80;99.90
46159;DHT22;31888;44.512;26.104;2022-09-27T04:58:12;17.80;99.90
46159;DHT22;31888;44.512;26.104;2022-09-27T05:00:16;17.70;99.90
46159;DHT22;31888;44.512;26.104;2022-09-27T05:02:25;17.70;99.90
46159;DHT22;31888;44.512;26.104;2022-09-27T05:04:48;17.70;99.90
46159;DHT22;31888;44.512;26.104;2022-09-27T05:06:55;17.70;99.90
46159;DHT22;31888;44.512;26.104;2022-09-27T05:09:10;17.70;99.90
46159;DHT22;31888;44.512;26.104;2022-09-27T05:11:22;17.70;99.90
46159;DHT22;31888;44.512;26.104;2022-09-27T05:13:50;17.70;99.90
46159;DHT22;31888;44.512;26.104;2022-09-27T05:16:01;17.70;99.90
46159;DHT22;31888;44.512;26.104;2022-09-27T05:18:18;17.70;99.90
46159;DHT22;31888;44.512;26.104;2022-09-27T05:20:41;17.70;99.90
46159;DHT22;31888;44.512;26.104;2022-09-27T05:22:57;17.70;99.90
46159;DHT22;31888;44.512;26.104;2022-09-27T05:25:02;17.80;99.90
46159;DHT22;31888;44.512;26.104;2022-09-27T05:27:07;17.80;99.90
46159;DHT22;31888;44.512;26.104;2022-09-27T05:29:14;17.80;99.90
46159;DHT22;31888;44.512;26.104;2022-09-27T05:31:28;17.90;99.90
46159;DHT22;31888;44.512;26.104;2022-09-27T05:33:33;17.90;99.90
46159;DHT22;31888;44.512;26.104;2022-09-27T05:35:40;17.90;99.90
46159;DHT22;31888;44.512;26.104;2022-09-27T05:37:52;17.90;99.90
46159;DHT22;31888;44.512;26.104;2022-09-27T05:39:57;17.90;99.90
46159;DHT22;31888;44.512;26.104;2022-09-27T05:42:19;17.90;99.90
46159;DHT22;31888;44.512;26.104;2022-09-27T05:44:26;17.80;99.90
46159;DHT22;31888;44.512;26.104;2022-09-27T05:46:34;17.80;99.90
46159;DHT22;31888;44.512;26.104;2022-09-27T05:48:41;17.80;99.90
46159;DHT22;31888;44.512;26.104;2022-09-27T05:50:46;17.90;99.90
46159;DHT22;31888;44.512;26.104;2022-09-27T05:52:52;17.90;99.90
46159;DHT22;31888;44.512;26.104;2022-09-27T05:54:58;18.00;99.90
46159;DHT22;31888;44.512;26.104;2022-09-27T05:57:05;18.00;99.90
46159;DHT22;31888;44.512;26.104;2022-09-27T05:59:18;18.10;99.90
46159;DHT22;31888;44.512;26.104;2022-09-27T06:01:43;18.10;99.90
46159;DHT22;31888;44.512;26.104;2022-09-27T06:04:07;18.00;99.90
46159;DHT22;31888;44.512;26.104;2022-09-27T06:06:11;18.00;99.90
46159;DHT22;31888;44.512;26.104;2022-09-27T06:08:22;18.00;99.90
46159;DHT22;31888;44.512;26.104;2022-09-27T06:10:28;18.00;99.90
46159;DHT22;31888;44.512;26.104;2022-09-27T06:12:34;18.00;99.90
46159;DHT22;31888;44.512;26.104;2022-09-27T06:14:46;18.10;99.90
46159;DHT22;31888;44.512;26.104;2022-09-27T06:17:06;18.10;99.90
46159;DHT22;31888;44.512;26.104;2022-09-27T06:19:14;18.20;99.90
46159;DHT22;31888;44.512;26.104;2022-09-27T06:21:19;18.20;99.90
46159;DHT22;31888;44.512;26.104;2022-09-27T06:23:30;18.30;99.90
46159;DHT22;31888;44.512;26.104;2022-09-27T06:25:44;18.30;99.90
46159;DHT22;31888;44.512;26.104;2022-09-27T06:27:54;18.30;99.90
46159;DHT22;31888;44.512;26.104;2022-09-27T06:30:03;18.40;99.90
46159;DHT22;31888;44.512;26.104;2022-09-27T06:32:29;18.50;99.90
46159;DHT22;31888;44.512;26.104;2022-09-27T06:34:49;18.50;99.90
46159;DHT22;31888;44.512;26.104;2022-09-27T06:36:53;18.70;99.90
46159;DHT22;31888;44.512;26.104;2022-09-27T06:39:00;18.80;99.90
46159;DHT22;31888;44.512;26.104;2022-09-27T06:41:15;18.90;99.90
46159;DHT22;31888;44.512;26.104;2022-09-27T06:43:28;18.90;99.90
46159;DHT22;31888;44.512;26.104;2022-09-27T06:45:49;18.90;99.90
46159;DHT22;31888;44.512;26.104;2022-09-27T06:48:22;18.90;99.90
46159;DHT22;31888;44.512;26.104;2022-09-27T06:50:41;18.80;99.90
46159;DHT22;31888;44.512;26.104;2022-09-27T06:52:47;18.90;99.90
46159;DHT22;31888;44.512;26.104;2022-09-27T06:54:54;19.00;99.90
46159;DHT22;31888;44.512;26.104;2022-09-27T06:56:59;19.10;99.90
46159;DHT22;31888;44.512;26.104;2022-09-27T06:59:05;19.10;99.90
46159;DHT22;31888;44.512;26.104;2022-09-27T07:01:47;19.10;99.90
46159;DHT22;31888;44.512;26.104;2022-09-27T07:04:34;19.20;99.90
46159;DHT22;31888;44.512;26.104;2022-09-27T07:06:39;19.20;99.90
46159;DHT22;31888;44.512;26.104;2022-09-27T07:08:53;19.30;99.90
46159;DHT22;31888;44.512;26.104;2022-09-27T07:11:01;19.30;99.90
46159;DHT22;31888;44.512;26.104;2022-09-27T07:13:08;19.30;99.90
46159;DHT22;31888;44.512;26.104;2022-09-27T07:15:13;19.30;99.90
46159;DHT22;31888;44.512;26.104;2022-09-27T07:17:19;19.30;99.90
46159;DHT22;31888;44.512;26.104;2022-09-27T07:19:25;19.10;99.90
46159;DHT22;31888;44.512;26.104;2022-09-27T07:21:32;19.10;99.90
46159;DHT22;31888;44.512;26.104;2022-09-27T07:23:37;19.10;99.90
46159;DHT22;31888;44.512;26.104;2022-09-27T07:25:45;19.20;99.90
46159;DHT22;31888;44.512;26.104;2022-09-27T07:27:50;19.30;99.90
46159;DHT22;31888;44.512;26.104;2022-09-27T07:29:56;19.30;99.90
46159;DHT22;31888;44.512;26.104;2022-09-27T07:32:01;19.40;99.90
46159;DHT22;31888;44.512;26.104;2022-09-27T07:34:05;19.30;99.90
46159;DHT22;31888;44.512;26.104;2022-09-27T07:36:13;19.30;99.90
46159;DHT22;31888;44.512;26.104;2022-09-27T07:38:22;19.30;99.90
46159;DHT22;31888;44.512;26.104;2022-09-27T07:40:27;19.30;99.90
46159;DHT22;31888;44.512;26.104;2022-09-27T07:42:32;19.30;99.90
46159;DHT22;31888;44.512;26.104;2022-09-27T07:44:37;19.30;99.90
46159;DHT22;31888;44.512;26.104;2022-09-27T07:47:06;19.20;99.90
46159;DHT22;31888;44.512;26.104;2022-09-27T07:49:36;19.30;99.90
46159;DHT22;31888;44.512;26.104;2022-09-27T07:52:00;19.40;99.90
46159;DHT22;31888;44.512;26.104;2022-09-27T07:54:26;19.40;99.90
46159;DHT22;31888;44.512;26.104;2022-09-27T07:56:49;19.40;99.90
46159;DHT22;31888;44.512;26.104;2022-09-27T07:58:56;19.40;99.90
46159;DHT22;31888;44.512;26.104;2022-09-27T08:01:01;19.40;99.90
46159;DHT22;31888;44.512;26.104;2022-09-27T08:03:09;19.40;99.90
46159;DHT22;31888;44.512;26.104;2022-09-27T08:05:16;19.40;99.90
46159;DHT22;31888;44.512;26.104;2022-09-27T08:10:30;19.50;99.90
46159;DHT22;31888;44.512;26.104;2022-09-27T08:12:35;19.50;99.90
46159;DHT22;31888;44.512;26.104;2022-09-27T08:14:39;19.60;99.90
46159;DHT22;31888;44.512;26.104;2022-09-27T08:16:50;19.60;99.90
46159;DHT22;31888;44.512;26.104;2022-09-27T08:19:04;19.70;99.90
46159;DHT22;31888;44.512;26.104;2022-09-27T08:21:21;19.70;99.90
46159;DHT22;31888;44.512;26.104;2022-09-27T08:23:45;19.70;99.90
46159;DHT22;31888;44.512;26.104;2022-09-27T08:25:58;19.80;99.90
46159;DHT22;31888;44.512;26.104;2022-09-27T08:28:15;19.80;99.90
46159;DHT22;31888;44.512;26.104;2022-09-27T08:30:30;19.90;99.90
46159;DHT22;31888;44.512;26.104;2022-09-27T08:32:36;20.10;99.90
46159;DHT22;31888;44.512;26.104;2022-09-27T08:34:42;20.10;99.90
46159;DHT22;31888;44.512;26.104;2022-09-27T08:36:46;20.30;99.90
46159;DHT22;31888;44.512;26.104;2022-09-27T08:38:51;20.40;99.90
46159;DHT22;31888;44.512;26.104;2022-09-27T08:41:07;20.40;99.90
46159;DHT22;31888;44.512;26.104;2022-09-27T08:43:23;20.50;99.90
46159;DHT22;31888;44.512;26.104;2022-09-27T08:45:31;20.50;99.90
46159;DHT22;31888;44.512;26.104;2022-09-27T08:47:40;20.50;99.90
46159;DHT22;31888;44.512;26.104;2022-09-27T08:49:50;20.60;99.90
46159;DHT22;31888;44.512;26.104;2022-09-27T08:51:57;20.60;99.90
46159;DHT22;31888;44.512;26.104;2022-09-27T08:54:04;20.60;99.90
46159;DHT22;31888;44.512;26.104;2022-09-27T08:56:13;20.60;99.90
46159;DHT22;31888;44.512;26.104;2022-09-27T08:58:26;20.40;99.90
46159;DHT22;31888;44.512;26.104;2022-09-27T09:00:32;20.40;99.90
46159;DHT22;31888;44.512;26.104;2022-09-27T09:02:47;20.30;99.90
46159;DHT22;31888;44.512;26.104;2022-09-27T09:04:55;20.40;99.90
46159;DHT22;31888;44.512;26.104;2022-09-27T09:07:07;20.40;99.90
46159;DHT22;31888;44.512;26.104;2022-09-27T09:09:21;20.30;99.90
46159;DHT22;31888;44.512;26.104;2022-09-27T09:11:48;20.30;99.90
46159;DHT22;31888;44.512;26.104;2022-09-27T09:14:27;20.30;99.90
46159;DHT22;31888;44.512;26.104;2022-09-27T09:16:43;20.40;99.90
46159;DHT22;31888;44.512;26.104;2022-09-27T09:19:03;20.40;99.90
46159;DHT22;31888;44.512;26.104;2022-09-27T09:21:23;20.50;99.90
46159;DHT22;31888;44.512;26.104;2022-09-27T09:23:59;20.50;99.90
46159;DHT22;31888;44.512;26.104;2022-09-27T09:26:12;20.60;99.90
46159;DHT22;31888;44.512;26.104;2022-09-27T09:28:31;20.70;99.90
46159;DHT22;31888;44.512;26.104;2022-09-27T09:30:54;20.80;99.90
46159;DHT22;31888;44.512;26.104;2022-09-27T09:33:13;20.70;99.90
46159;DHT22;31888;44.512;26.104;2022-09-27T09:35:21;20.70;99.90
46159;DHT22;31888;44.512;26.104;2022-09-27T09:37:35;20.60;99.90
46159;DHT22;31888;44.512;26.104;2022-09-27T09:39:43;20.70;99.90
46159;DHT22;31888;44.512;26.104;2022-09-27T09:41:59;20.70;99.90
46159;DHT22;31888;44.512;26.104;2022-09-27T09:44:14;20.80;99.90
46159;DHT22;31888;44.512;26.104;2022-09-27T09:46:23;20.90;99.90
46159;DHT22;31888;44.512;26.104;2022-09-27T09:48:35;21.00;99.90
46159;DHT22;31888;44.512;26.104;2022-09-27T09:50:45;21.10;99.90
46159;DHT22;31888;44.512;26.104;2022-09-27T09:52:55;21.10;99.90
46159;DHT22;31888;44.512;26.104;2022-09-27T09:55:06;21.00;99.90
46159;DHT22;31888;44.512;26.104;2022-09-27T09:57:15;21.00;99.90
46159;DHT22;31888;44.512;26.104;2022-09-27T09:59:27;20.90;99.90
46159;DHT22;31888;44.512;26.104;2022-09-27T10:01:34;21.00;99.90
46159;DHT22;31888;44.512;26.104;2022-09-27T10:03:41;21.10;99.90
46159;DHT22;31888;44.512;26.104;2022-09-27T10:05:46;21.20;99.90
46159;DHT22;31888;44.512;26.104;2022-09-27T10:07:53;21.20;99.90
46159;DHT22;31888;44.512;26.104;2022-09-27T10:10:00;21.30;99.90
46159;DHT22;31888;44.512;26.104;2022-09-27T10:12:28;21.30;99.20
46159;DHT22;31888;44.512;26.104;2022-09-27T10:14:36;21.30;99.10
46159;DHT22;31888;44.512;26.104;2022-09-27T10:16:45;21.40;99.10
46159;DHT22;31888;44.512;26.104;2022-09-27T10:18:56;21.30;99.10
46159;DHT22;31888;44.512;26.104;2022-09-27T10:21:07;21.30;99.40
46159;DHT22;31888;44.512;26.104;2022-09-27T10:23:16;21.30;99.40
46159;DHT22;31888;44.512;26.104;2022-09-27T10:25:47;21.40;99.10
46159;DHT22;31888;44.512;26.104;2022-09-27T10:28:28;21.30;99.00
46159;DHT22;31888;44.512;26.104;2022-09-27T10:30:36;21.40;98.20
46159;DHT22;31888;44.512;26.104;2022-09-27T10:32:49;21.20;98.30
46159;DHT22;31888;44.512;26.104;2022-09-27T10:35:31;21.30;98.50
46159;DHT22;31888;44.512;26.104;2022-09-27T10:37:38;21.30;98.30
46159;DHT22;31888;44.512;26.104;2022-09-27T10:39:49;21.30;98.00
46159;DHT22;31888;44.512;26.104;2022-09-27T10:41:57;21.30;98.10
46159;DHT22;31888;44.512;26.104;2022-09-27T10:44:20;21.30;98.20
46159;DHT22;31888;44.512;26.104;2022-09-27T10:46:47;21.30;98.20
46159;DHT22;31888;44.512;26.104;2022-09-27T10:49:17;21.40;98.20
46159;DHT22;31888;44.512;26.104;2022-09-27T10:51:29;21.40;97.90
46159;DHT22;31888;44.512;26.104;2022-09-27T10:53:35;21.40;98.30
46159;DHT22;31888;44.512;26.104;2022-09-27T10:55:47;21.40;98.40
46159;DHT22;31888;44.512;26.104;2022-09-27T10:57:53;21.50;98.30
46159;DHT22;31888;44.512;26.104;2022-09-27T11:00:04;21.60;97.90
46159;DHT22;31888;44.512;26.104;2022-09-27T11:02:16;21.70;97.70
46159;DHT22;31888;44.512;26.104;2022-09-27T11:04:34;21.70;97.70
46159;DHT22;31888;44.512;26.104;2022-09-27T11:06:40;21.80;98.00
46159;DHT22;31888;44.512;26.104;2022-09-27T11:08:45;21.80;97.50
46159;DHT22;31888;44.512;26.104;2022-09-27T11:11:11;21.90;97.60
46159;DHT22;31888;44.512;26.104;2022-09-27T11:13:19;22.00;97.70
46159;DHT22;31888;44.512;26.104;2022-09-27T11:15:29;22.20;97.40
46159;DHT22;31888;44.512;26.104;2022-09-27T11:17:41;22.40;96.90
46159;DHT22;31888;44.512;26.104;2022-09-27T11:20:04;22.70;96.50
46159;DHT22;31888;44.512;26.104;2022-09-27T11:22:22;23.00;96.30
46159;DHT22;31888;44.512;26.104;2022-09-27T11:24:45;23.10;95.70
46159;DHT22;31888;44.512;26.104;2022-09-27T11:27:06;23.30;95.80
46159;DHT22;31888;44.512;26.104;2022-09-27T11:29:21;23.40;95.20
46159;DHT22;31888;44.512;26.104;2022-09-27T11:32:02;23.30;95.10
46159;DHT22;31888;44.512;26.104;2022-09-27T11:34:32;23.40;94.60
46159;DHT22;31888;44.512;26.104;2022-09-27T11:36:55;23.20;94.60
46159;DHT22;31888;44.512;26.104;2022-09-27T11:39:08;23.20;94.80
46159;DHT22;31888;44.512;26.104;2022-09-27T11:41:35;23.10;94.80
46159;DHT22;31888;44.512;26.104;2022-09-27T11:44:10;23.10;94.80
46159;DHT22;31888;44.512;26.104;2022-09-27T11:46:22;23.00;94.70
46159;DHT22;31888;44.512;26.104;2022-09-27T11:48:58;22.90;95.20
46159;DHT22;31888;44.512;26.104;2022-09-27T11:51:21;23.00;95.00
46159;DHT22;31888;44.512;26.104;2022-09-27T11:53:45;23.00;94.80
46159;DHT22;31888;44.512;26.104;2022-09-27T11:56:01;23.00;94.90
46159;DHT22;31888;44.512;26.104;2022-09-27T11:58:11;23.20;94.80
46159;DHT22;31888;44.512;26.104;2022-09-27T12:00:20;23.40;94.60
46159;DHT22;31888;44.512;26.104;2022-09-27T12:05:15;23.40;94.40
46159;DHT22;31888;44.512;26.104;2022-09-27T12:07:38;23.40;94.20
46159;DHT22;31888;44.512;26.104;2022-09-27T12:09:50;23.30;94.40
46159;DHT22;31888;44.512;26.104;2022-09-27T12:11:59;23.30;94.40
46159;DHT22;31888;44.512;26.104;2022-09-27T12:14:14;23.30;94.50
46159;DHT22;31888;44.512;26.104;2022-09-27T12:16:21;23.20;94.40
46159;DHT22;31888;44.512;26.104;2022-09-27T12:18:29;23.10;94.60
46159;DHT22;31888;44.512;26.104;2022-09-27T12:20:41;23.10;94.60
46159;DHT22;31888;44.512;26.104;2022-09-27T12:22:53;23.20;94.70
46159;DHT22;31888;44.512;26.104;2022-09-27T12:25:23;23.30;94.60
46159;DHT22;31888;44.512;26.104;2022-09-27T12:27:36;23.10;94.90
46159;DHT22;31888;44.512;26.104;2022-09-27T12:29:43;23.10;94.70
46159;DHT22;31888;44.512;26.104;2022-09-27T12:31:56;23.00;94.70
46159;DHT22;31888;44.512;26.104;2022-09-27T12:34:10;22.90;94.90
46159;DHT22;31888;44.512;26.104;2022-09-27T12:36:24;22.90;94.80
46159;DHT22;31888;44.512;26.104;2022-09-27T12:38:36;23.00;94.90
46159;DHT22;31888;44.512;26.104;2022-09-27T12:40:47;22.90;95.00
46159;DHT22;31888;44.512;26.104;2022-09-27T12:42:58;22.90;94.80
46159;DHT22;31888;44.512;26.104;2022-09-27T12:45:26;22.80;95.00
46159;DHT22;31888;44.512;26.104;2022-09-27T12:47:52;22.80;94.80
46159;DHT22;31888;44.512;26.104;2022-09-27T12:50:04;22.60;95.10
46159;DHT22;31888;44.512;26.104;2022-09-27T12:52:18;22.60;95.60
46159;DHT22;31888;44.512;26.104;2022-09-27T12:54:47;22.70;95.20
46159;DHT22;31888;44.512;26.104;2022-09-27T12:57:00;22.60;95.60
46159;DHT22;31888;44.512;26.104;2022-09-27T13:02:02;22.50;95.50
46159;DHT22;31888;44.512;26.104;2022-09-27T13:04:31;22.50;95.90
46159;DHT22;31888;44.512;26.104;2022-09-27T13:06:57;22.40;95.90
46159;DHT22;31888;44.512;26.104;2022-09-27T13:11:49;22.20;96.10
46159;DHT22;31888;44.512;26.104;2022-09-27T13:13:58;22.10;95.90
46159;DHT22;31888;44.512;26.104;2022-09-27T13:16:04;22.10;96.10
46159;DHT22;31888;44.512;26.104;2022-09-27T13:18:30;22.00;96.00
46159;DHT22;31888;44.512;26.104;2022-09-27T13:20:42;21.90;96.20
46159;DHT22;31888;44.512;26.104;2022-09-27T13:26:21;21.90;96.70
46159;DHT22;31888;44.512;26.104;2022-09-27T13:28:33;21.90;96.90
46159;DHT22;31888;44.512;26.104;2022-09-27T13:30:47;22.00;97.80
46159;DHT22;31888;44.512;26.104;2022-09-27T13:33:28;22.00;97.90
46159;DHT22;31888;44.512;26.104;2022-09-27T13:35:37;22.20;98.10
46159;DHT22;31888;44.512;26.104;2022-09-27T13:37:53;22.20;98.30
46159;DHT22;31888;44.512;26.104;2022-09-27T13:45:39;22.20;98.00
46159;DHT22;31888;44.512;26.104;2022-09-27T13:47:47;22.20;97.70
46159;DHT22;31888;44.512;26.104;2022-09-27T13:50:16;22.20;97.80
46159;DHT22;31888;44.512;26.104;2022-09-27T13:52:32;22.40;97.70
46159;DHT22;31888;44.512;26.104;2022-09-27T13:54:50;22.40;97.20
46159;DHT22;31888;44.512;26.104;2022-09-27T13:56:58;22.50;96.80
46159;DHT22;31888;44.512;26.104;2022-09-27T13:59:07;22.50;96.70
46159;DHT22;31888;44.512;26.104;2022-09-27T14:01:26;22.50;96.60
46159;DHT22;31888;44.512;26.104;2022-09-27T14:03:35;22.50;96.70
46159;DHT22;31888;44.512;26.104;2022-09-27T14:05:46;22.50;96.50
46159;DHT22;31888;44.512;26.104;2022-09-27T14:07:54;22.40;96.40
46159;DHT22;31888;44.512;26.104;2022-09-27T14:10:04;22.40;96.40